ADDS METAR Data INFO
IDs: Format: Raw Decoded Include TAF

Data at: 1548 UTC 12 Dec 2017

KW78 121535Z AUTO 26004KT 10SM OVC100 08/00 A2966 RMK AO1 T00750001
KW78 121515Z AUTO 26003KT 10SM OVC120 07/00 A2966 RMK AO1 T00720001
KW78 121455Z AUTO 23005KT 10SM BKN120 07/01 A2966 RMK AO1 T00670008
KW78 121435Z AUTO 25004KT 10SM SCT120 05/00 A2967 RMK AO1 T00530004
KW78 121415Z AUTO 25007KT 10SM CLR 05/00 A2967 RMK AO1 T00450001
KW78 121355Z AUTO 25005KT 10SM CLR 04/00 A2967 RMK AO1 T00410000
KW78 121335Z AUTO 24007KT 10SM CLR 04/00 A2968 RMK AO1 T00400000
KW78 121315Z AUTO 24006KT 10SM CLR 04/00 A2969 RMK AO1 T00370000
KW78 121255Z AUTO 23005KT 10SM CLR 04/00 A2969 RMK AO1 T00350000
KW78 121235Z AUTO 22005KT 10SM CLR 03/00 A2969 RMK AO1 T00340000
KW78 121215Z AUTO 23005KT 10SM CLR 04/00 A2969 RMK AO1 T00351001
KW78 121155Z AUTO 23004KT 10SM CLR 03/00 A2969 RMK AO1 70014 T00331002 10040 20010
KW78 121135Z AUTO 23005KT 10SM CLR 04/00 A2969 RMK AO1 T00351004
KW78 121115Z AUTO 21005KT 10SM CLR 04/00 A2969 RMK AO1 T00351002
KW78 121055Z AUTO 21004KT 10SM CLR 01/M01 A2970 RMK AO1 T00121010
KW78 121035Z AUTO 23004KT 10SM CLR 02/00 A2971 RMK AO1 T00151005
KW78 121015Z AUTO 00000KT 10SM CLR 03/M01 A2972 RMK AO1 T00281008
KW78 120955Z AUTO 00000KT 10SM CLR 02/M01 A2972 RMK AO1 T00191011
KW78 120935Z AUTO 21003KT 10SM CLR 03/M01 A2973 RMK AO1 T00261011
KW78 120915Z AUTO 18003KT 10SM CLR 03/M01 A2972 RMK AO1 T00251012
KW78 120855Z AUTO 21003KT 10SM CLR 03/M01 A2974 RMK AO1 T00331013
KW78 120835Z AUTO 22003KT 10SM CLR 03/M01 A2975 RMK AO1 T00271013
KW78 120815Z AUTO 20004KT 10SM CLR 03/M01 A2976 RMK AO1 T00251011
KW78 120755Z AUTO 20003KT 10SM CLR 04/M02 A2977 RMK AO1 T00371016
KW78 120735Z AUTO 21003KT 10SM CLR 03/M01 A2978 RMK AO1 T00341015
KW78 120715Z AUTO 21004KT 10SM CLR 03/M02 A2979 RMK AO1 T00301016
KW78 120655Z AUTO 00000KT 10SM CLR 02/M02 A2980 RMK AO1 T00241018
KW78 120635Z AUTO 00000KT 10SM CLR 02/M02 A2981 RMK AO1 T00191016
KW78 120615Z AUTO 00000KT 10SM CLR 04/M02 A2983 RMK AO1 T00381020
KW78 120555Z AUTO 00000KT 10SM CLR 04/M02 A2984 RMK AO1 T00411019 10042 20004
KW78 120535Z AUTO 18004KT 10SM CLR 03/M02 A2983 RMK AO1 T00341018
KW78 120515Z AUTO 18005KT 10SM CLR 04/M02 A2984 RMK AO1 T00351017
KW78 120455Z AUTO 18004KT 10SM CLR 04/M02 A2986 RMK AO1 T00371017 401001042
KW78 120435Z AUTO 19004KT 10SM CLR 04/M02 A2987 RMK AO1 T00361016
KW78 120415Z AUTO 17005KT 10SM CLR 04/M01 A2987 RMK AO1 T00421015
KW78 120355Z AUTO 17006KT 10SM CLR 04/M01 A2989 RMK AO1 T00361015
KW78 120335Z AUTO 17005KT 10SM CLR 03/M01 A2990 RMK AO1 T00341015
KW78 120315Z AUTO 19004KT 10SM CLR 03/M01 A2992 RMK AO1 T00331015
KW78 120255Z AUTO 00000KT 10SM CLR 03/M02 A2992 RMK AO1 T00341016
KW78 120235Z AUTO 00000KT 10SM CLR 04/M01 A2993 RMK AO1 T00361015
KW78 120215Z AUTO 00000KT 10SM CLR 04/M01 A2993 RMK AO1 T00351015
KW78 120155Z AUTO 20003KT 10SM CLR 04/M02 A2995 RMK AO1 T00401016
KW78 120135Z AUTO 19003KT 10SM CLR 02/M01 A2995 RMK AO1 T00241015
KW78 120115Z AUTO 18003KT 10SM CLR 02/M01 A2995 RMK AO1 T00221009
KW78 120055Z AUTO 00000KT 10SM CLR 02/M02 A2995 RMK AO1 T00151021
KW78 120035Z AUTO 00000KT 10SM CLR 03/M01 A2996 RMK AO1 T00251013
KW78 120015Z AUTO 00000KT 10SM CLR 01/M01 A2996 RMK AO1 T00091015
KW78 112355Z AUTO 00000KT 10SM CLR 02/M01 A2996 RMK AO1 T00241015 10100 20022
KW78 112335Z AUTO 00000KT 10SM CLR 03/M02 A2998 RMK AO1 T00251016
KW78 112315Z AUTO 00000KT 10SM CLR 03/M01 A2998 RMK AO1 T00311011
KW78 112255Z AUTO 00000KT 10SM CLR 04/M02 A2998 RMK AO1 T00411017
KW78 112235Z AUTO 00000KT 10SM CLR 05/M01 A2998 RMK AO1 T00531014
KW78 112215Z AUTO 00000KT 10SM CLR 07/M02 A2998 RMK AO1 T00671021
KW78 112155Z AUTO 00000KT 10SM CLR 08/M02 A2999 RMK AO1 T00811022
KW78 112135Z AUTO 00000KT 10SM CLR 08/M02 A2998 RMK AO1 T00831017
KW78 112115Z AUTO 19003KT 10SM CLR 09/M02 A2999 RMK AO1 T00941022
KW78 112055Z AUTO 19004KT 10SM CLR 10/M02 A3001 RMK AO1 T00991020
KW78 112035Z AUTO 24006KT 10SM CLR 10/M02 A3002 RMK AO1 T00971025
KW78 112015Z AUTO 21005KT 10SM CLR 10/M03 A3002 RMK AO1 T01001027
KW78 111955Z AUTO 21006KT 10SM CLR 10/M02 A3002 RMK AO1 T00981025
KW78 111935Z AUTO 22003KT 10SM CLR 10/M03 A3003 RMK AO1 T00991026
KW78 111915Z AUTO 21003KT 10SM CLR 10/M03 A3003 RMK AO1 T00971028
KW78 111855Z AUTO 22007KT 10SM CLR 10/M03 A3004 RMK AO1 T00971027
KW78 111835Z AUTO 00000KT 10SM CLR 10/M04 A3003 RMK AO1 T00951038
KW78 111815Z AUTO 20003KT 10SM CLR 09/M03 A3004 RMK AO1 T00911033
KW78 111755Z AUTO 00000KT 10SM CLR 09/M03 A3005 RMK AO1 60014 T00901029 10091 21038
KW78 111735Z AUTO 24004KT 10SM CLR 09/M03 A3006 RMK AO1 T00851026
KW78 111715Z AUTO 27004KT 10SM CLR 08/M02 A3007 RMK AO1 T00841023
KW78 111655Z AUTO 26003KT 10SM CLR 08/M04 A3008 RMK AO1 P0002 T00801036
KW78 111635Z AUTO 30004KT 10SM CLR 07/M03 A3009 RMK AO1 P0002 T00731032
KW78 111615Z AUTO 27005KT 10SM CLR 07/M03 A3011 RMK AO1 P0002 T00701034
KW78 111555Z AUTO 28007KT 10SM CLR 06/M04 A3012 RMK AO1 P0008 T00621039
KW78 111535Z AUTO 29003KT 10SM CLR 06/M03 A3013 RMK AO1 P0005 T00591033
KW78 111515Z AUTO 24005KT 10SM CLR 05/M03 A3013 RMK AO1 P0002 T00491033
KW78 111455Z AUTO 27004KT 10SM CLR 04/M03 A3013 RMK AO1 P0002 60002 T00381035
KW78 111435Z AUTO 26004KT 10SM CLR 03/M04 A3013 RMK AO1 P0001 T00261037
KW78 111415Z AUTO 27005KT 10SM CLR 02/M04 A3013 RMK AO1 T00161039
KW78 111355Z AUTO 00000KT 10SM CLR 00/M04 A3014 RMK AO1 T00031039
KW78 111335Z AUTO 00000KT 10SM CLR M01/M04 A3013 RMK AO1 T10091041
KW78 111315Z AUTO 00000KT 10SM CLR M02/M05 A3013 RMK AO1 T10191048
KW78 111255Z AUTO 00000KT 10SM CLR M04/M06 A3013 RMK AO1 T10361056
KW78 111235Z AUTO 00000KT 10SM CLR M02/M04 A3012 RMK AO1 T10221045
KW78 111215Z AUTO 00000KT 10SM CLR M02/M04 A3012 RMK AO1 T10231045
KW78 111155Z AUTO 00000KT 10SM CLR M03/M05 A3011 RMK AO1 70031 T10351053 11013 21042
KW78 111135Z AUTO 24003KT 10SM CLR M03/M05 A3010 RMK AO1 T10321048
KW78 111115Z AUTO 00000KT 10SM CLR M02/M05 A3011 RMK AO1 T10241047
KW78 111055Z AUTO 00000KT 10SM CLR M02/M05 A3010 RMK AO1 T10251048
KW78 111035Z AUTO 25003KT 10SM CLR M02/M05 A3010 RMK AO1 T10241052
KW78 111015Z AUTO 25003KT 10SM CLR M02/M05 A3009 RMK AO1 T10201050
KW78 110955Z AUTO 24003KT 10SM CLR M02/M05 A3009 RMK AO1 T10221049
KW78 110935Z AUTO 25003KT 10SM CLR M02/M05 A3009 RMK AO1 T10161050
KW78 110915Z AUTO 25003KT 10SM CLR M02/M05 A3009 RMK AO1 T10211052
KW78 110855Z AUTO 24003KT 10SM CLR M01/M05 A3009 RMK AO1 T10151048
KW78 110835Z AUTO 00000KT 10SM CLR M01/M05 A3009 RMK AO1 T10151048
KW78 110815Z AUTO 24003KT 10SM CLR M01/M05 A3009 RMK AO1 T10151048
KW78 110755Z AUTO 24004KT 10SM CLR M02/M05 A3010 RMK AO1 T10161048
KW78 110735Z AUTO 24003KT 10SM CLR M02/M05 A3009 RMK AO1 T10191047
KW78 110715Z AUTO 00000KT 10SM CLR M02/M04 A3010 RMK AO1 T10201045
KW78 110655Z AUTO 00000KT 10SM CLR M02/M04 A3010 RMK AO1 T10171042
KW78 110635Z AUTO 24003KT 10SM CLR M03/M04 A3010 RMK AO1 T10261041
KW78 110615Z AUTO 00000KT 10SM CLR M04/M05 A3010 RMK AO1 T10421050
KW78 110555Z AUTO 00000KT 10SM CLR M04/M04 A3010 RMK AO1 T10361042 10000 21038
KW78 110535Z AUTO 00000KT 10SM CLR M03/M04 A3012 RMK AO1 T10351045
KW78 110515Z AUTO 00000KT 10SM CLR M04/M04 A3012 RMK AO1 T10381045
KW78 110455Z AUTO 22003KT 10SM CLR M02/M04 A3012 RMK AO1 T10201039 400381035
KW78 110435Z AUTO 00000KT 10SM CLR M03/M03 A3012 RMK AO1 T10281035
KW78 110415Z AUTO 00000KT 10SM CLR M03/M04 A3012 RMK AO1 T10321039
KW78 110355Z AUTO 00000KT 10SM CLR M01/M04 A3012 RMK AO1 T10131044